To NAV CANADA Home Page Login to a new session Search on AWWS site Feedback and Comments Disclaimer Vers la page française équivalente Tips FAQ What's new on the site To the Forecasts and Observations / NOTAM section To "File a Flight Plan" website Publications and other links Update of the User's profile FIC Telephone Numbers My Weather Data Folder Route Weather Data Regional Weather Data Local Weather Data To the Forecasts and Observations / NOTAM section
Request Generated 03/31/2015 at 05:23:00 UTC . Weather information available at that time is displayed.

METAR/TAF

HALIFAX/STANFIELD INTL/NS    

METAR CYHZ 310500Z 15006KT 9SM -SHSN BKN017 OVC035 M01/M02 A2968 RMK
SC5SC3 SLP055=
METAR CYHZ 310400Z 16009KT 6SM -SHSN FEW018 OVC038 M01/M03 A2971 RMK
SC2SC6 SLP067=
SPECI CYHZ 310334Z 16009KT 15SM -SHSN SCT018 OVC042 M01/M03 A2972 RMK
SC3SC5 SLP072=
METAR CYHZ 310300Z 16009KT 15SM BKN023 OVC060 M01/M04 A2974 RMK
SC5SC3 SLP079=

TAF CYHZ 310238Z 3103/3124 16008KT P6SM SCT020 OVC070 TEMPO 3103/3107
3SM -SN OVC020
FM310700 16008KT 3SM -SN SCT007 OVC015 TEMPO 3107/3109 11/2SM -SN
OVC007
FM310900 16005KT 11/2SM -SN BR OVC004 TEMPO 3109/3111 1/2SM -SN
FZFG VV003
FM311100 24005KT 6SM BR BKN003 OVC020
FM311400 27010KT P6SM OVC020
FM311600 27010G20KT P6SM -SHRA BKN020 BKN040
FM312200 27010G20KT P6SM BKN040
RMK NXT FCST BY 310600Z=
Your time UTC time
Weather data provided by Environment Canada and NAV CANADA